createdAt,value
2022-12-03T00:02:57.572Z,-3.47
2022-12-03T00:05:59.498Z,-3.49
2022-12-03T00:09:01.281Z,-3.55
2022-12-03T00:12:03.324Z,-3.53
2022-12-03T00:15:06.557Z,-3.58
2022-12-03T00:18:08.413Z,-3.62
2022-12-03T00:21:10.275Z,-3.63
2022-12-03T00:24:12.153Z,-3.65
2022-12-03T00:27:14.078Z,-3.73
2022-12-03T00:30:16.070Z,-3.70
2022-12-03T00:33:17.846Z,-3.70
2022-12-03T00:36:19.832Z,-3.71
2022-12-03T00:39:21.762Z,-3.68
2022-12-03T00:42:23.618Z,-3.76
2022-12-03T00:45:25.452Z,-3.77
2022-12-03T00:48:27.368Z,-3.88
2022-12-03T00:51:29.258Z,-3.82
2022-12-03T00:54:32.222Z,-3.87
2022-12-03T00:57:34.399Z,-3.87
2022-12-03T01:00:37.810Z,-3.91
2022-12-03T01:03:39.717Z,-3.98
2022-12-03T01:06:41.633Z,-4.05
2022-12-03T01:09:43.518Z,-4.05
2022-12-03T01:12:45.599Z,-4.07
2022-12-03T01:15:48.047Z,-4.09
2022-12-03T01:18:52.453Z,-4.15
2022-12-03T01:21:55.621Z,-4.09
2022-12-03T01:24:57.456Z,-4.15
2022-12-03T01:27:59.331Z,-4.16
2022-12-03T01:31:19.671Z,-4.38
2022-12-03T01:34:21.912Z,-4.35
2022-12-03T01:37:26.035Z,-4.37
2022-12-03T01:40:27.891Z,-4.41
2022-12-03T01:43:29.986Z,-4.53
2022-12-03T01:46:39.061Z,-4.51
2022-12-03T01:49:48.904Z,-4.57
2022-12-03T01:52:51.178Z,-4.60
2022-12-03T01:55:53.056Z,-4.62
2022-12-03T01:58:54.947Z,-4.71
2022-12-03T02:01:56.794Z,-4.77
2022-12-03T02:05:00.257Z,-4.76
2022-12-03T02:08:02.327Z,-4.78
2022-12-03T02:11:33.268Z,-4.77
2022-12-03T02:14:35.222Z,-4.83
2022-12-03T02:17:37.419Z,-4.92
2022-12-03T02:20:53.456Z,-4.90
2022-12-03T02:24:23.822Z,-4.88
2022-12-03T02:27:28.338Z,-4.94
2022-12-03T02:30:31.635Z,-4.97
2022-12-03T02:33:33.674Z,-4.96
2022-12-03T02:36:36.566Z,-4.93
2022-12-03T02:39:41.310Z,-4.97
2022-12-03T02:42:45.007Z,-5.00
2022-12-03T02:45:49.955Z,-4.85
2022-12-03T02:48:51.982Z,-4.89
2022-12-03T02:51:53.900Z,-4.88
2022-12-03T02:54:56.097Z,-4.90
2022-12-03T02:57:58.404Z,-4.86
2022-12-03T03:01:02.199Z,-4.89
2022-12-03T03:04:05.691Z,-4.82
2022-12-03T03:07:08.411Z,-4.80
2022-12-03T03:10:14.626Z,-4.81
2022-12-03T03:13:18.688Z,-4.79
2022-12-03T03:16:20.733Z,-4.77
2022-12-03T03:19:26.626Z,-4.74
2022-12-03T03:22:37.325Z,-4.69
2022-12-03T03:25:41.183Z,-4.67
2022-12-03T03:28:46.835Z,-4.69
2022-12-03T03:31:49.103Z,-4.65
2022-12-03T03:34:51.243Z,-4.66
2022-12-03T03:37:53.922Z,-4.60
2022-12-03T03:40:58.130Z,-4.61
2022-12-03T03:44:00.646Z,-4.58
2022-12-03T03:47:03.017Z,-4.56
2022-12-03T03:50:07.270Z,-4.57
2022-12-03T03:53:11.069Z,-4.51
2022-12-03T03:56:13.531Z,-4.45
2022-12-03T03:59:15.798Z,-4.49
2022-12-03T04:02:22.031Z,-4.45
2022-12-03T04:05:24.933Z,-4.42
2022-12-03T04:08:26.660Z,-4.36
2022-12-03T04:11:47.055Z,-4.32
2022-12-03T04:14:48.918Z,-4.25
2022-12-03T04:18:11.169Z,-4.36
2022-12-03T04:21:34.024Z,-4.25
2022-12-03T04:24:35.928Z,-4.22
2022-12-03T04:27:56.555Z,-4.20
2022-12-03T04:30:58.547Z,-4.15
2022-12-03T04:34:18.827Z,-4.22
2022-12-03T04:37:20.842Z,-4.18
2022-12-03T04:40:41.300Z,-4.17
2022-12-03T04:44:01.444Z,-4.18
2022-12-03T04:47:12.220Z,-4.16
2022-12-03T04:50:14.144Z,-4.15
2022-12-03T04:53:16.277Z,-4.05
2022-12-03T04:56:18.151Z,-4.02
2022-12-03T04:59:20.182Z,-4.05
2022-12-03T05:02:22.085Z,-4.13
2022-12-03T05:05:24.048Z,-4.01
2022-12-03T05:08:25.967Z,-3.89
2022-12-03T05:11:27.940Z,-3.95
2022-12-03T05:14:29.850Z,-3.91
2022-12-03T05:17:31.815Z,-3.88
2022-12-03T05:20:43.843Z,-3.91
2022-12-03T05:23:47.627Z,-3.90
2022-12-03T05:26:49.854Z,-3.91
2022-12-03T05:29:52.141Z,-3.81
2022-12-03T05:32:54.105Z,-3.91
2022-12-03T05:35:56.003Z,-3.85
2022-12-03T05:38:57.875Z,-3.89
2022-12-03T05:42:18.183Z,-3.86
2022-12-03T05:45:41.300Z,-3.87
2022-12-03T05:48:43.140Z,-3.84
2022-12-03T05:51:45.025Z,-3.80
2022-12-03T05:54:46.882Z,-3.79
2022-12-03T05:57:49.127Z,-3.83
2022-12-03T06:00:51.036Z,-3.87
2022-12-03T06:03:53.005Z,-3.89
2022-12-03T06:06:54.976Z,-3.83
2022-12-03T06:09:56.888Z,-3.72
2022-12-03T06:12:58.810Z,-3.66
2022-12-03T06:16:00.715Z,-3.71
2022-12-03T06:19:03.231Z,-3.75
2022-12-03T06:22:05.148Z,-3.65
2022-12-03T06:25:07.508Z,-3.67
2022-12-03T06:28:09.399Z,-3.74
2022-12-03T06:31:11.337Z,-3.70
2022-12-03T06:34:13.700Z,-3.70
2022-12-03T06:37:15.593Z,-3.69
2022-12-03T06:40:17.503Z,-3.63
2022-12-03T06:43:19.311Z,-3.52
2022-12-03T06:46:21.234Z,-3.53
2022-12-03T06:49:23.130Z,-3.49
2022-12-03T06:52:24.979Z,-3.48
2022-12-03T06:55:26.768Z,-3.43
2022-12-03T06:58:28.657Z,-3.43
2022-12-03T07:01:30.623Z,-3.49
2022-12-03T07:04:32.512Z,-3.41
2022-12-03T07:07:34.387Z,-3.34
2022-12-03T07:10:36.316Z,-3.32
2022-12-03T07:13:38.480Z,-3.34
2022-12-03T07:16:40.564Z,-3.39
2022-12-03T07:19:42.421Z,-3.41
2022-12-03T07:22:44.231Z,-3.35
2022-12-03T07:25:46.407Z,-3.31
2022-12-03T07:28:48.402Z,-3.19
2022-12-03T07:31:50.459Z,-3.21
2022-12-03T07:34:52.777Z,-3.15
2022-12-03T07:37:54.831Z,-3.08
2022-12-03T07:40:56.737Z,-3.02
2022-12-03T07:43:58.583Z,-3.00
2022-12-03T07:47:00.553Z,-2.97
2022-12-03T07:50:02.489Z,-3.12
2022-12-03T07:53:04.365Z,-3.05
2022-12-03T07:56:06.712Z,-3.04
2022-12-03T07:59:08.601Z,-2.98
2022-12-03T08:02:10.576Z,-2.88
2022-12-03T08:05:12.439Z,-2.87
2022-12-03T08:08:14.757Z,-2.94
2022-12-03T08:11:16.599Z,-2.92
2022-12-03T08:14:20.557Z,-2.98
2022-12-03T08:17:23.607Z,-2.99
2022-12-03T08:20:33.439Z,-3.05
2022-12-03T08:23:36.777Z,-3.06
2022-12-03T08:26:38.641Z,-3.02
2022-12-03T08:29:40.455Z,-2.86
2022-12-03T08:32:43.119Z,-2.97
2022-12-03T08:35:50.997Z,-3.00
2022-12-03T08:38:57.245Z,-2.96
2022-12-03T08:42:28.349Z,-3.05
2022-12-03T08:45:32.163Z,-2.99
2022-12-03T08:48:40.709Z,-2.94
2022-12-03T08:51:45.775Z,-2.75
2022-12-03T08:54:54.720Z,-2.77
2022-12-03T08:57:56.904Z,-2.69
2022-12-03T09:01:08.649Z,-2.68
2022-12-03T09:04:31.034Z,-2.62
2022-12-03T09:07:33.023Z,-2.66
2022-12-03T09:10:34.928Z,-2.64
2022-12-03T09:13:36.846Z,-2.65
2022-12-03T09:16:38.785Z,-2.63
2022-12-03T09:19:46.187Z,-2.63
2022-12-03T09:22:48.442Z,-2.64
2022-12-03T09:25:50.278Z,-2.62
2022-12-03T09:28:52.179Z,-2.64
2022-12-03T09:31:54.097Z,-2.63
2022-12-03T09:34:56.305Z,-2.59
2022-12-03T09:37:58.349Z,-2.53
2022-12-03T09:41:00.440Z,-2.60
2022-12-03T09:44:04.290Z,-2.46
2022-12-03T09:47:08.189Z,-2.45
2022-12-03T09:50:14.796Z,-2.47
2022-12-03T09:53:20.958Z,-2.52
2022-12-03T09:56:23.640Z,-2.63
2022-12-03T09:59:31.687Z,-2.73
2022-12-03T10:02:34.811Z,-2.70
2022-12-03T10:05:36.955Z,-2.69
2022-12-03T10:08:38.871Z,-2.74
2022-12-03T10:11:40.814Z,-2.75
2022-12-03T10:14:43.086Z,-2.82
2022-12-03T10:17:48.017Z,-2.74
2022-12-03T10:20:53.563Z,-2.79
2022-12-03T10:24:17.397Z,-2.70
2022-12-03T10:30:56.761Z,-2.66
2022-12-03T10:33:58.723Z,-2.72
2022-12-03T10:37:14.920Z,-2.62
2022-12-03T10:40:25.315Z,-2.87
2022-12-03T10:43:28.372Z,-2.77
2022-12-03T10:46:34.152Z,-2.72
2022-12-03T10:49:36.505Z,-2.57
2022-12-03T10:52:38.402Z,-2.49
2022-12-03T10:55:42.616Z,-2.45
2022-12-03T10:58:44.725Z,-2.52
2022-12-03T11:01:47.045Z,-2.46
2022-12-03T11:04:49.604Z,-2.39
2022-12-03T11:07:51.586Z,-2.36
2022-12-03T11:11:20.802Z,-2.45
2022-12-03T11:14:54.046Z,-2.40
2022-12-03T11:17:56.234Z,-2.46
2022-12-03T11:20:58.035Z,-2.53
2022-12-03T11:23:59.838Z,-2.52
2022-12-03T11:27:01.741Z,-2.61
2022-12-03T11:30:03.908Z,-2.62
2022-12-03T11:33:32.858Z,-2.65
2022-12-03T11:37:00.259Z,-2.79
2022-12-03T11:40:04.026Z,-2.85
2022-12-03T11:43:10.028Z,-2.90
2022-12-03T11:46:12.166Z,-2.92
2022-12-03T11:49:32.855Z,-2.90
2022-12-03T11:52:43.269Z,-2.85
2022-12-03T11:55:49.113Z,-2.85
2022-12-03T11:59:01.981Z,-2.74
2022-12-03T12:02:20.092Z,-2.73
2022-12-03T12:05:26.799Z,-2.76
2022-12-03T12:08:28.811Z,-2.91
2022-12-03T12:11:33.864Z,-2.92
2022-12-03T12:14:35.793Z,-2.94
2022-12-03T12:17:37.703Z,-2.97
2022-12-03T12:20:39.661Z,-3.03
2022-12-03T12:23:41.573Z,-3.15
2022-12-03T12:26:51.378Z,-3.20
2022-12-03T12:30:01.461Z,-3.24
2022-12-03T12:33:24.466Z,-3.24
2022-12-03T12:36:26.289Z,-3.28
2022-12-03T12:39:28.415Z,-3.42
2022-12-03T12:42:31.853Z,-3.31
2022-12-03T12:45:35.736Z,-3.25
2022-12-03T12:48:39.373Z,-3.17
2022-12-03T12:51:45.563Z,-3.22
2022-12-03T12:54:47.504Z,-3.25
2022-12-03T12:57:49.889Z,-3.31
2022-12-03T13:00:56.125Z,-3.37
2022-12-03T13:03:59.606Z,-3.37
2022-12-03T13:07:01.583Z,-3.41
2022-12-03T13:10:20.541Z,-3.41
2022-12-03T13:13:25.967Z,-3.43
2022-12-03T13:16:32.756Z,-3.51
2022-12-03T13:19:43.312Z,-3.59
2022-12-03T13:22:48.805Z,-3.68
2022-12-03T13:26:09.240Z,-3.70
2022-12-03T13:29:16.612Z,-3.69
2022-12-03T13:32:31.237Z,-3.70
2022-12-03T13:35:36.430Z,-3.80
2022-12-03T13:38:38.345Z,-3.83
2022-12-03T13:42:00.187Z,-3.89
2022-12-03T13:45:04.003Z,-3.98
2022-12-03T13:48:30.374Z,-4.05
2022-12-03T13:51:33.451Z,-4.00
2022-12-03T13:54:38.077Z,-4.11
2022-12-03T13:57:40.058Z,-4.15
2022-12-03T14:00:43.073Z,-4.16
2022-12-03T14:03:45.088Z,-4.28
2022-12-03T14:06:46.935Z,-4.33
2022-12-03T14:09:48.829Z,-4.44
2022-12-03T14:12:50.691Z,-4.51
2022-12-03T14:15:52.506Z,-4.54
2022-12-03T14:18:54.417Z,-4.59
2022-12-03T14:21:56.446Z,-4.57
2022-12-03T14:24:58.388Z,-4.50
2022-12-03T14:28:00.900Z,-4.42
2022-12-03T14:31:02.771Z,-4.48
2022-12-03T14:34:04.646Z,-4.52
2022-12-03T14:37:06.500Z,-4.58
2022-12-03T14:40:09.204Z,-4.54
2022-12-03T14:43:11.148Z,-4.65
2022-12-03T14:46:12.977Z,-4.70
2022-12-03T14:49:14.869Z,-4.81
2022-12-03T14:52:17.131Z,-4.86
2022-12-03T14:55:19.147Z,-4.89
2022-12-03T14:58:20.922Z,-4.87
2022-12-03T15:01:23.326Z,-4.81
2022-12-03T15:04:25.609Z,-4.80
2022-12-03T15:07:27.560Z,-4.74
2022-12-03T15:10:29.453Z,-4.80
2022-12-03T15:13:31.364Z,-4.81
2022-12-03T15:16:33.324Z,-4.85
2022-12-03T15:19:35.199Z,-4.92
2022-12-03T15:22:36.998Z,-4.94
2022-12-03T15:25:38.946Z,-5.04
2022-12-03T15:28:45.331Z,-4.99
2022-12-03T15:31:50.015Z,-5.04
2022-12-03T15:34:52.043Z,-5.05
2022-12-03T15:41:24.952Z,-4.97
2022-12-03T15:44:26.908Z,-5.03
2022-12-03T15:47:28.843Z,-5.05
2022-12-03T15:50:33.530Z,-5.08
2022-12-03T15:53:37.947Z,-5.14
2022-12-03T15:59:59.962Z,-5.13
2022-12-03T16:03:01.809Z,-5.17
2022-12-03T16:06:03.872Z,-5.14
2022-12-03T16:09:05.708Z,-5.19
2022-12-03T16:12:07.598Z,-5.10
2022-12-03T16:15:10.169Z,-5.05
2022-12-03T16:18:12.125Z,-5.05
2022-12-03T16:21:14.303Z,-5.07
2022-12-03T16:24:16.220Z,-5.07
2022-12-03T16:27:22.742Z,-5.06
2022-12-03T16:30:27.224Z,-5.04
2022-12-03T16:33:29.035Z,-5.05
2022-12-03T16:36:30.953Z,-5.10
2022-12-03T16:42:52.758Z,-5.09
2022-12-03T16:46:20.656Z,-5.10
2022-12-03T16:49:22.939Z,-5.07
2022-12-03T16:52:24.808Z,-5.11
2022-12-03T16:55:32.330Z,-5.19
2022-12-03T16:58:34.231Z,-5.28
2022-12-03T17:01:36.091Z,-5.19
2022-12-03T17:04:38.215Z,-5.14
2022-12-03T17:07:40.057Z,-5.16
2022-12-03T17:10:42.644Z,-5.24
2022-12-03T17:13:44.539Z,-5.31
2022-12-03T17:16:46.378Z,-5.33
2022-12-03T17:19:48.245Z,-5.33
2022-12-03T17:22:50.260Z,-5.43
2022-12-03T17:25:52.218Z,-5.42
2022-12-03T17:28:54.155Z,-5.38
2022-12-03T17:31:56.001Z,-5.46
2022-12-03T17:34:58.019Z,-5.55
2022-12-03T17:37:59.974Z,-5.45
2022-12-03T17:41:01.770Z,-5.50
2022-12-03T17:44:09.733Z,-5.55
2022-12-03T17:47:12.665Z,-5.56
2022-12-03T17:50:14.545Z,-5.59
2022-12-03T17:53:16.405Z,-5.60
2022-12-03T17:56:18.273Z,-5.60
2022-12-03T17:59:20.146Z,-5.66
2022-12-03T18:02:21.999Z,-5.66
2022-12-03T18:05:25.773Z,-5.68
2022-12-03T18:08:27.650Z,-5.72
2022-12-03T18:11:29.446Z,-5.75
2022-12-03T18:14:31.290Z,-5.75
2022-12-03T18:17:33.171Z,-5.82
2022-12-03T18:20:35.185Z,-5.89
2022-12-03T18:23:37.081Z,-5.90
2022-12-03T18:26:39.034Z,-5.88
2022-12-03T18:29:40.822Z,-5.92
2022-12-03T18:32:42.728Z,-6.01
2022-12-03T18:35:44.706Z,-6.00
2022-12-03T18:38:56.963Z,-5.98
2022-12-03T18:41:58.864Z,-6.11
2022-12-03T18:45:01.282Z,-6.02
2022-12-03T18:48:11.897Z,-6.11
2022-12-03T18:51:17.621Z,-6.12
2022-12-03T18:54:19.419Z,-6.13
2022-12-03T18:57:21.383Z,-6.15
2022-12-03T19:00:23.429Z,-6.24
2022-12-03T19:03:25.406Z,-6.25
2022-12-03T19:06:29.080Z,-6.21
2022-12-03T19:09:30.942Z,-6.23
2022-12-03T19:12:33.264Z,-6.28
2022-12-03T19:15:41.460Z,-6.29
2022-12-03T19:18:43.803Z,-6.32
2022-12-03T19:21:45.603Z,-6.34
2022-12-03T19:24:47.476Z,-6.35
2022-12-03T19:27:50.824Z,-6.38
2022-12-03T19:31:14.728Z,-6.37
2022-12-03T19:34:17.071Z,-6.46
2022-12-03T19:37:18.903Z,-6.46
2022-12-03T19:40:23.161Z,-6.50
2022-12-03T19:43:25.012Z,-6.48
2022-12-03T19:46:31.752Z,-6.50
2022-12-03T19:49:33.765Z,-6.50
2022-12-03T19:52:36.555Z,-6.53
2022-12-03T19:55:38.540Z,-6.55
2022-12-03T19:58:42.471Z,-6.51
2022-12-03T20:01:44.354Z,-6.54
2022-12-03T20:04:46.349Z,-6.59
2022-12-03T20:07:48.200Z,-6.64
2022-12-03T20:10:50.100Z,-6.69
2022-12-03T20:13:58.228Z,-6.65
2022-12-03T20:17:00.126Z,-6.69
2022-12-03T20:20:02.023Z,-6.71
2022-12-03T20:23:04.019Z,-6.73
2022-12-03T20:26:13.104Z,-6.82
2022-12-03T20:29:15.061Z,-6.84
2022-12-03T20:32:17.164Z,-6.82
2022-12-03T20:35:19.057Z,-6.89
2022-12-03T20:38:22.122Z,-6.88
2022-12-03T20:41:24.103Z,-6.92
2022-12-03T20:44:25.944Z,-6.94
2022-12-03T20:47:27.848Z,-6.96
2022-12-03T20:50:29.646Z,-7.00
2022-12-03T20:53:31.488Z,-6.92
2022-12-03T20:56:37.443Z,-7.02
2022-12-03T20:59:39.390Z,-6.94
2022-12-03T21:02:41.222Z,-7.00
2022-12-03T21:05:43.989Z,-6.94
2022-12-03T21:08:46.278Z,-6.96
2022-12-03T21:11:48.163Z,-6.97
2022-12-03T21:14:50.029Z,-6.93
2022-12-03T21:17:52.086Z,-6.97
2022-12-03T21:20:53.955Z,-6.96
2022-12-03T21:23:57.483Z,-6.96
2022-12-03T21:26:59.292Z,-6.99
2022-12-03T21:30:01.113Z,-6.96
2022-12-03T21:33:03.035Z,-7.04
2022-12-03T21:36:05.971Z,-7.05
2022-12-03T21:39:08.084Z,-6.99
2022-12-03T21:42:34.487Z,-7.02
2022-12-03T21:45:31.816Z,-7.02
2022-12-03T21:48:33.916Z,-7.03
2022-12-03T21:51:35.779Z,-6.98
2022-12-03T21:54:37.655Z,-7.02
2022-12-03T21:57:39.536Z,-7.00
2022-12-03T22:00:41.337Z,-6.95
2022-12-03T22:03:43.564Z,-6.98
2022-12-03T22:06:45.371Z,-6.96
2022-12-03T22:09:47.230Z,-7.02
2022-12-03T22:12:49.052Z,-6.92
2022-12-03T22:15:50.886Z,-6.89
2022-12-03T22:18:54.154Z,-6.96
2022-12-03T22:21:55.995Z,-6.91
2022-12-03T22:24:57.876Z,-6.89
2022-12-03T22:27:59.830Z,-6.92
2022-12-03T22:31:08.775Z,-6.93
2022-12-03T22:34:10.657Z,-6.98
2022-12-03T22:37:12.570Z,-7.03
2022-12-03T22:40:14.675Z,-6.92
2022-12-03T22:43:17.289Z,-7.01
2022-12-03T22:46:19.167Z,-6.95
2022-12-03T22:49:21.432Z,-7.03
2022-12-03T22:52:23.306Z,-7.07
2022-12-03T22:55:25.162Z,-7.03
2022-12-03T22:58:28.760Z,-7.04
2022-12-03T23:01:33.071Z,-7.02
2022-12-03T23:04:34.939Z,-7.06
2022-12-03T23:07:36.873Z,-7.03
2022-12-03T23:10:42.492Z,-7.07
2022-12-03T23:13:44.831Z,-7.10
2022-12-03T23:16:46.735Z,-7.14
2022-12-03T23:19:48.749Z,-7.12
2022-12-03T23:22:51.451Z,-7.13
2022-12-03T23:25:58.134Z,-7.19
2022-12-03T23:29:00.035Z,-7.28
2022-12-03T23:32:02.056Z,-7.26
2022-12-03T23:35:05.344Z,-7.27
2022-12-03T23:38:07.162Z,-7.32
2022-12-03T23:41:11.757Z,-7.36
2022-12-03T23:44:13.644Z,-7.41
2022-12-03T23:47:15.569Z,-7.43
2022-12-03T23:50:17.461Z,-7.43
2022-12-03T23:53:19.326Z,-7.49
2022-12-03T23:56:27.302Z,-7.52
2022-12-03T23:59:29.133Z,-7.48
